sensor_id;sensor_type;location;lat;lon;timestamp;P1;durP1;ratioP1;P2;durP2;ratioP2
19985;SDS011;10154;52.474;10.768;2022-08-03T00:00:56;6.38;;;2.33;;
19985;SDS011;10154;52.474;10.768;2022-08-03T00:03:22;3.63;;;2.30;;
19985;SDS011;10154;52.474;10.768;2022-08-03T00:05:48;3.28;;;2.33;;
19985;SDS011;10154;52.474;10.768;2022-08-03T00:08:14;4.95;;;2.25;;
19985;SDS011;10154;52.474;10.768;2022-08-03T00:10:41;4.00;;;2.42;;
19985;SDS011;10154;52.474;10.768;2022-08-03T00:13:07;3.08;;;2.10;;
19985;SDS011;10154;52.474;10.768;2022-08-03T00:15:33;4.25;;;2.33;;
19985;SDS011;10154;52.474;10.768;2022-08-03T00:17:59;5.15;;;2.10;;
19985;SDS011;10154;52.474;10.768;2022-08-03T00:20:25;3.80;;;2.15;;
19985;SDS011;10154;52.474;10.768;2022-08-03T00:22:51;3.97;;;2.17;;
19985;SDS011;10154;52.474;10.768;2022-08-03T00:25:17;2.90;;;2.20;;
19985;SDS011;10154;52.474;10.768;2022-08-03T00:27:44;3.13;;;2.08;;
19985;SDS011;10154;52.474;10.768;2022-08-03T00:30:10;5.28;;;2.30;;
19985;SDS011;10154;52.474;10.768;2022-08-03T00:32:36;7.35;;;2.20;;
19985;SDS011;10154;52.474;10.768;2022-08-03T00:35:03;3.33;;;2.15;;
19985;SDS011;10154;52.474;10.768;2022-08-03T00:37:30;4.25;;;2.30;;
19985;SDS011;10154;52.474;10.768;2022-08-03T00:39:56;4.13;;;2.20;;
19985;SDS011;10154;52.474;10.768;2022-08-03T00:42:22;3.63;;;2.40;;
19985;SDS011;10154;52.474;10.768;2022-08-03T00:44:48;4.70;;;2.20;;
19985;SDS011;10154;52.474;10.768;2022-08-03T00:47:14;3.03;;;2.10;;
19985;SDS011;10154;52.474;10.768;2022-08-03T00:49:40;4.10;;;2.10;;
19985;SDS011;10154;52.474;10.768;2022-08-03T00:52:07;4.53;;;1.95;;
19985;SDS011;10154;52.474;10.768;2022-08-03T00:54:37;3.83;;;2.40;;
19985;SDS011;10154;52.474;10.768;2022-08-03T00:57:04;2.97;;;2.20;;
19985;SDS011;10154;52.474;10.768;2022-08-03T00:59:31;5.32;;;2.15;;
19985;SDS011;10154;52.474;10.768;2022-08-03T01:01:57;5.43;;;2.38;;
19985;SDS011;10154;52.474;10.768;2022-08-03T01:04:23;2.58;;;2.10;;
19985;SDS011;10154;52.474;10.768;2022-08-03T01:09:59;7.45;;;2.60;;
19985;SDS011;10154;52.474;10.768;2022-08-03T01:15:31;3.75;;;2.25;;
19985;SDS011;10154;52.474;10.768;2022-08-03T01:18:13;3.60;;;2.13;;
19985;SDS011;10154;52.474;10.768;2022-08-03T01:20:46;3.58;;;2.47;;
19985;SDS011;10154;52.474;10.768;2022-08-03T01:26:19;4.15;;;2.90;;
19985;SDS011;10154;52.474;10.768;2022-08-03T01:35:31;4.95;;;2.28;;
19985;SDS011;10154;52.474;10.768;2022-08-03T01:38:10;5.75;;;2.47;;
19985;SDS011;10154;52.474;10.768;2022-08-03T01:40:42;12.95;;;2.70;;
19985;SDS011;10154;52.474;10.768;2022-08-03T01:43:12;6.47;;;2.85;;
19985;SDS011;10154;52.474;10.768;2022-08-03T01:45:41;4.32;;;2.40;;
19985;SDS011;10154;52.474;10.768;2022-08-03T01:48:08;5.95;;;2.50;;
19985;SDS011;10154;52.474;10.768;2022-08-03T01:50:39;4.85;;;2.65;;
19985;SDS011;10154;52.474;10.768;2022-08-03T01:53:06;4.90;;;2.63;;
19985;SDS011;10154;52.474;10.768;2022-08-03T01:55:34;9.02;;;2.80;;
19985;SDS011;10154;52.474;10.768;2022-08-03T01:58:02;7.10;;;2.78;;
19985;SDS011;10154;52.474;10.768;2022-08-03T02:00:32;6.32;;;2.72;;
19985;SDS011;10154;52.474;10.768;2022-08-03T02:03:06;4.05;;;2.63;;
19985;SDS011;10154;52.474;10.768;2022-08-03T02:05:34;5.05;;;2.88;;
19985;SDS011;10154;52.474;10.768;2022-08-03T02:08:02;6.78;;;3.00;;
19985;SDS011;10154;52.474;10.768;2022-08-03T02:10:32;7.35;;;2.78;;
19985;SDS011;10154;52.474;10.768;2022-08-03T02:13:02;7.25;;;2.95;;
19985;SDS011;10154;52.474;10.768;2022-08-03T02:15:32;8.65;;;2.72;;
19985;SDS011;10154;52.474;10.768;2022-08-03T02:17:59;5.75;;;2.58;;
19985;SDS011;10154;52.474;10.768;2022-08-03T02:20:28;8.27;;;2.85;;
19985;SDS011;10154;52.474;10.768;2022-08-03T02:22:57;7.25;;;2.75;;
19985;SDS011;10154;52.474;10.768;2022-08-03T02:25:23;6.70;;;2.70;;
19985;SDS011;10154;52.474;10.768;2022-08-03T02:27:50;3.38;;;2.30;;
19985;SDS011;10154;52.474;10.768;2022-08-03T02:30:22;5.25;;;2.50;;
19985;SDS011;10154;52.474;10.768;2022-08-03T02:33:02;6.35;;;2.60;;
19985;SDS011;10154;52.474;10.768;2022-08-03T02:35:32;4.63;;;2.72;;
19985;SDS011;10154;52.474;10.768;2022-08-03T02:38:00;3.95;;;2.50;;
19985;SDS011;10154;52.474;10.768;2022-08-03T02:40:29;3.97;;;2.40;;
19985;SDS011;10154;52.474;10.768;2022-08-03T02:42:58;3.47;;;2.40;;
19985;SDS011;10154;52.474;10.768;2022-08-03T02:45:30;8.02;;;2.80;;
19985;SDS011;10154;52.474;10.768;2022-08-03T02:48:01;4.15;;;2.80;;
19985;SDS011;10154;52.474;10.768;2022-08-03T02:50:29;3.20;;;2.50;;
19985;SDS011;10154;52.474;10.768;2022-08-03T02:52:57;7.55;;;2.80;;
19985;SDS011;10154;52.474;10.768;2022-08-03T02:55:25;3.45;;;2.78;;
19985;SDS011;10154;52.474;10.768;2022-08-03T02:57:53;3.88;;;2.40;;
19985;SDS011;10154;52.474;10.768;2022-08-03T03:00:20;3.45;;;2.53;;
19985;SDS011;10154;52.474;10.768;2022-08-03T03:02:47;4.85;;;2.70;;
19985;SDS011;10154;52.474;10.768;2022-08-03T03:05:14;7.03;;;2.95;;
19985;SDS011;10154;52.474;10.768;2022-08-03T03:07:41;9.25;;;2.97;;
19985;SDS011;10154;52.474;10.768;2022-08-03T03:10:09;7.68;;;3.13;;
19985;SDS011;10154;52.474;10.768;2022-08-03T03:12:36;6.40;;;3.20;;
19985;SDS011;10154;52.474;10.768;2022-08-03T03:15:04;9.02;;;2.88;;
19985;SDS011;10154;52.474;10.768;2022-08-03T03:17:32;10.48;;;3.20;;
19985;SDS011;10154;52.474;10.768;2022-08-03T03:19:59;5.30;;;2.88;;
19985;SDS011;10154;52.474;10.768;2022-08-03T03:22:26;7.10;;;2.70;;
19985;SDS011;10154;52.474;10.768;2022-08-03T03:24:53;5.95;;;2.88;;
19985;SDS011;10154;52.474;10.768;2022-08-03T03:27:20;5.53;;;2.95;;
19985;SDS011;10154;52.474;10.768;2022-08-03T03:29:47;3.85;;;2.53;;
19985;SDS011;10154;52.474;10.768;2022-08-03T03:32:14;6.15;;;3.10;;
19985;SDS011;10154;52.474;10.768;2022-08-03T03:34:40;5.90;;;2.80;;
19985;SDS011;10154;52.474;10.768;2022-08-03T03:37:07;3.90;;;2.85;;
19985;SDS011;10154;52.474;10.768;2022-08-03T03:39:33;8.15;;;2.97;;
19985;SDS011;10154;52.474;10.768;2022-08-03T03:42:00;3.55;;;2.88;;
19985;SDS011;10154;52.474;10.768;2022-08-03T03:44:27;3.28;;;2.72;;
19985;SDS011;10154;52.474;10.768;2022-08-03T03:46:55;3.17;;;2.53;;
19985;SDS011;10154;52.474;10.768;2022-08-03T03:49:22;5.10;;;3.00;;
19985;SDS011;10154;52.474;10.768;2022-08-03T03:51:51;8.00;;;3.33;;
19985;SDS011;10154;52.474;10.768;2022-08-03T03:54:18;5.57;;;3.25;;
19985;SDS011;10154;52.474;10.768;2022-08-03T03:56:45;11.30;;;3.00;;
19985;SDS011;10154;52.474;10.768;2022-08-03T03:59:11;9.10;;;3.22;;
19985;SDS011;10154;52.474;10.768;2022-08-03T04:01:38;4.55;;;3.17;;
19985;SDS011;10154;52.474;10.768;2022-08-03T04:04:04;4.35;;;3.03;;
19985;SDS011;10154;52.474;10.768;2022-08-03T04:06:49;5.90;;;2.92;;
19985;SDS011;10154;52.474;10.768;2022-08-03T04:09:35;7.10;;;3.20;;
19985;SDS011;10154;52.474;10.768;2022-08-03T04:12:23;6.40;;;3.20;;
19985;SDS011;10154;52.474;10.768;2022-08-03T04:14:52;6.85;;;2.72;;
19985;SDS011;10154;52.474;10.768;2022-08-03T04:17:20;3.88;;;2.95;;
19985;SDS011;10154;52.474;10.768;2022-08-03T04:19:51;6.28;;;2.95;;
19985;SDS011;10154;52.474;10.768;2022-08-03T04:22:21;6.07;;;3.20;;
19985;SDS011;10154;52.474;10.768;2022-08-03T04:24:56;11.18;;;3.40;;
19985;SDS011;10154;52.474;10.768;2022-08-03T04:27:32;6.63;;;3.20;;
19985;SDS011;10154;52.474;10.768;2022-08-03T04:30:03;7.57;;;3.33;;
19985;SDS011;10154;52.474;10.768;2022-08-03T04:32:31;6.22;;;3.17;;
19985;SDS011;10154;52.474;10.768;2022-08-03T04:34:59;4.30;;;2.72;;
19985;SDS011;10154;52.474;10.768;2022-08-03T04:37:40;7.07;;;3.20;;
19985;SDS011;10154;52.474;10.768;2022-08-03T04:40:13;5.72;;;3.15;;
19985;SDS011;10154;52.474;10.768;2022-08-03T04:42:46;5.25;;;3.10;;
19985;SDS011;10154;52.474;10.768;2022-08-03T04:45:14;3.80;;;3.17;;
19985;SDS011;10154;52.474;10.768;2022-08-03T04:47:44;4.00;;;3.17;;
19985;SDS011;10154;52.474;10.768;2022-08-03T04:50:11;5.15;;;2.92;;
19985;SDS011;10154;52.474;10.768;2022-08-03T04:52:38;6.50;;;3.20;;
19985;SDS011;10154;52.474;10.768;2022-08-03T04:55:04;3.63;;;2.60;;
19985;SDS011;10154;52.474;10.768;2022-08-03T04:57:31;9.07;;;3.20;;
19985;SDS011;10154;52.474;10.768;2022-08-03T04:59:57;5.43;;;3.10;;
19985;SDS011;10154;52.474;10.768;2022-08-03T05:02:23;5.43;;;3.38;;
19985;SDS011;10154;52.474;10.768;2022-08-03T05:04:49;6.38;;;2.88;;
19985;SDS011;10154;52.474;10.768;2022-08-03T05:07:16;6.15;;;3.28;;
19985;SDS011;10154;52.474;10.768;2022-08-03T05:09:43;3.97;;;3.10;;
19985;SDS011;10154;52.474;10.768;2022-08-03T05:12:09;7.03;;;2.95;;
19985;SDS011;10154;52.474;10.768;2022-08-03T05:14:36;4.20;;;3.10;;
19985;SDS011;10154;52.474;10.768;2022-08-03T05:17:06;4.63;;;3.10;;
19985;SDS011;10154;52.474;10.768;2022-08-03T05:19:33;4.30;;;3.20;;
19985;SDS011;10154;52.474;10.768;2022-08-03T05:21:59;3.03;;;2.72;;
19985;SDS011;10154;52.474;10.768;2022-08-03T05:24:26;4.13;;;3.20;;
19985;SDS011;10154;52.474;10.768;2022-08-03T05:26:52;4.50;;;2.97;;
19985;SDS011;10154;52.474;10.768;2022-08-03T05:29:18;7.78;;;2.80;;
19985;SDS011;10154;52.474;10.768;2022-08-03T05:31:44;3.58;;;3.05;;
19985;SDS011;10154;52.474;10.768;2022-08-03T05:34:10;5.07;;;3.10;;
19985;SDS011;10154;52.474;10.768;2022-08-03T05:36:36;6.60;;;2.90;;
19985;SDS011;10154;52.474;10.768;2022-08-03T05:39:03;3.78;;;2.70;;
19985;SDS011;10154;52.474;10.768;2022-08-03T05:41:29;4.30;;;2.65;;
19985;SDS011;10154;52.474;10.768;2022-08-03T05:43:56;6.60;;;2.40;;
19985;SDS011;10154;52.474;10.768;2022-08-03T05:46:22;4.85;;;3.00;;
19985;SDS011;10154;52.474;10.768;2022-08-03T05:48:48;6.20;;;2.70;;
19985;SDS011;10154;52.474;10.768;2022-08-03T05:51:15;5.53;;;2.13;;
19985;SDS011;10154;52.474;10.768;2022-08-03T05:53:42;2.90;;;2.20;;
19985;SDS011;10154;52.474;10.768;2022-08-03T05:56:09;6.25;;;2.28;;
19985;SDS011;10154;52.474;10.768;2022-08-03T05:58:36;3.20;;;2.08;;
19985;SDS011;10154;52.474;10.768;2022-08-03T06:01:02;3.15;;;2.15;;
19985;SDS011;10154;52.474;10.768;2022-08-03T06:03:29;7.82;;;2.20;;
19985;SDS011;10154;52.474;10.768;2022-08-03T06:05:55;4.25;;;2.00;;
19985;SDS011;10154;52.474;10.768;2022-08-03T06:08:24;5.80;;;2.20;;
19985;SDS011;10154;52.474;10.768;2022-08-03T06:10:50;3.30;;;2.42;;
19985;SDS011;10154;52.474;10.768;2022-08-03T06:13:16;4.47;;;2.10;;
19985;SDS011;10154;52.474;10.768;2022-08-03T06:15:42;3.40;;;1.70;;
19985;SDS011;10154;52.474;10.768;2022-08-03T06:18:08;4.50;;;2.08;;
19985;SDS011;10154;52.474;10.768;2022-08-03T06:20:35;5.47;;;2.20;;
19985;SDS011;10154;52.474;10.768;2022-08-03T06:23:01;2.40;;;1.85;;
19985;SDS011;10154;52.474;10.768;2022-08-03T06:25:27;4.55;;;2.10;;
19985;SDS011;10154;52.474;10.768;2022-08-03T06:27:54;2.78;;;1.90;;
19985;SDS011;10154;52.474;10.768;2022-08-03T06:30:21;2.75;;;1.80;;
19985;SDS011;10154;52.474;10.768;2022-08-03T06:32:47;3.28;;;2.00;;
19985;SDS011;10154;52.474;10.768;2022-08-03T06:35:13;4.15;;;2.10;;
19985;SDS011;10154;52.474;10.768;2022-08-03T06:37:40;4.38;;;2.22;;
19985;SDS011;10154;52.474;10.768;2022-08-03T06:40:12;2.55;;;2.00;;
19985;SDS011;10154;52.474;10.768;2022-08-03T06:42:41;4.63;;;1.90;;
19985;SDS011;10154;52.474;10.768;2022-08-03T06:45:08;4.80;;;1.92;;
19985;SDS011;10154;52.474;10.768;2022-08-03T06:47:35;7.38;;;1.88;;
19985;SDS011;10154;52.474;10.768;2022-08-03T06:50:03;4.32;;;1.67;;
19985;SDS011;10154;52.474;10.768;2022-08-03T06:52:30;5.13;;;1.90;;
19985;SDS011;10154;52.474;10.768;2022-08-03T06:54:57;6.38;;;2.05;;
19985;SDS011;10154;52.474;10.768;2022-08-03T06:57:23;4.95;;;2.28;;
19985;SDS011;10154;52.474;10.768;2022-08-03T06:59:50;5.93;;;2.33;;
19985;SDS011;10154;52.474;10.768;2022-08-03T07:02:16;3.83;;;2.10;;
19985;SDS011;10154;52.474;10.768;2022-08-03T07:04:43;8.65;;;2.42;;
19985;SDS011;10154;52.474;10.768;2022-08-03T07:07:09;7.38;;;2.58;;
19985;SDS011;10154;52.474;10.768;2022-08-03T07:09:36;8.63;;;2.65;;
19985;SDS011;10154;52.474;10.768;2022-08-03T07:12:02;6.88;;;2.60;;
19985;SDS011;10154;52.474;10.768;2022-08-03T07:14:30;7.80;;;2.60;;
19985;SDS011;10154;52.474;10.768;2022-08-03T07:16:56;7.47;;;2.53;;
19985;SDS011;10154;52.474;10.768;2022-08-03T07:19:25;7.25;;;2.47;;
19985;SDS011;10154;52.474;10.768;2022-08-03T07:21:51;4.50;;;2.60;;
19985;SDS011;10154;52.474;10.768;2022-08-03T07:24:17;8.52;;;3.03;;
19985;SDS011;10154;52.474;10.768;2022-08-03T07:26:44;8.65;;;3.25;;
19985;SDS011;10154;52.474;10.768;2022-08-03T07:29:10;6.82;;;2.88;;
19985;SDS011;10154;52.474;10.768;2022-08-03T07:31:36;9.07;;;2.88;;
19985;SDS011;10154;52.474;10.768;2022-08-03T07:34:02;10.48;;;3.58;;
19985;SDS011;10154;52.474;10.768;2022-08-03T07:36:29;9.77;;;3.20;;
19985;SDS011;10154;52.474;10.768;2022-08-03T07:38:56;11.27;;;3.40;;
19985;SDS011;10154;52.474;10.768;2022-08-03T07:41:22;9.10;;;3.17;;
19985;SDS011;10154;52.474;10.768;2022-08-03T07:43:49;7.72;;;3.55;;
19985;SDS011;10154;52.474;10.768;2022-08-03T07:46:15;9.77;;;3.20;;
19985;SDS011;10154;52.474;10.768;2022-08-03T07:48:41;14.90;;;4.10;;
19985;SDS011;10154;52.474;10.768;2022-08-03T07:51:07;11.43;;;3.15;;
19985;SDS011;10154;52.474;10.768;2022-08-03T07:53:33;7.50;;;3.30;;
19985;SDS011;10154;52.474;10.768;2022-08-03T07:55:59;9.60;;;2.85;;
19985;SDS011;10154;52.474;10.768;2022-08-03T07:58:26;8.20;;;3.10;;
19985;SDS011;10154;52.474;10.768;2022-08-03T08:00:52;9.23;;;3.13;;
19985;SDS011;10154;52.474;10.768;2022-08-03T08:03:18;7.55;;;2.90;;
19985;SDS011;10154;52.474;10.768;2022-08-03T08:05:45;7.53;;;2.92;;
19985;SDS011;10154;52.474;10.768;2022-08-03T08:08:12;10.70;;;3.17;;
19985;SDS011;10154;52.474;10.768;2022-08-03T08:10:38;13.18;;;3.13;;
19985;SDS011;10154;52.474;10.768;2022-08-03T08:13:04;8.65;;;3.15;;
19985;SDS011;10154;52.474;10.768;2022-08-03T08:15:31;7.63;;;2.90;;
19985;SDS011;10154;52.474;10.768;2022-08-03T08:17:58;7.90;;;3.10;;
19985;SDS011;10154;52.474;10.768;2022-08-03T08:20:27;12.52;;;3.47;;
19985;SDS011;10154;52.474;10.768;2022-08-03T08:22:58;10.88;;;3.13;;
19985;SDS011;10154;52.474;10.768;2022-08-03T08:25:26;12.70;;;3.03;;
19985;SDS011;10154;52.474;10.768;2022-08-03T08:27:52;7.90;;;2.65;;
19985;SDS011;10154;52.474;10.768;2022-08-03T08:30:19;8.95;;;3.00;;
19985;SDS011;10154;52.474;10.768;2022-08-03T08:32:47;9.30;;;3.15;;
19985;SDS011;10154;52.474;10.768;2022-08-03T08:35:14;10.35;;;2.80;;
19985;SDS011;10154;52.474;10.768;2022-08-03T08:37:42;7.80;;;3.00;;
19985;SDS011;10154;52.474;10.768;2022-08-03T08:40:09;7.05;;;2.88;;
19985;SDS011;10154;52.474;10.768;2022-08-03T08:42:37;6.95;;;2.70;;
19985;SDS011;10154;52.474;10.768;2022-08-03T08:45:06;6.07;;;2.63;;
19985;SDS011;10154;52.474;10.768;2022-08-03T08:47:36;5.35;;;2.47;;
19985;SDS011;10154;52.474;10.768;2022-08-03T08:50:06;4.60;;;2.47;;
19985;SDS011;10154;52.474;10.768;2022-08-03T08:52:33;4.32;;;2.50;;
19985;SDS011;10154;52.474;10.768;2022-08-03T08:55:05;7.35;;;2.50;;
19985;SDS011;10154;52.474;10.768;2022-08-03T08:57:37;5.45;;;2.45;;
19985;SDS011;10154;52.474;10.768;2022-08-03T09:00:16;7.13;;;2.42;;
19985;SDS011;10154;52.474;10.768;2022-08-03T09:02:43;9.13;;;2.25;;
19985;SDS011;10154;52.474;10.768;2022-08-03T09:05:11;5.30;;;2.30;;
19985;SDS011;10154;52.474;10.768;2022-08-03T09:07:43;5.70;;;2.30;;
19985;SDS011;10154;52.474;10.768;2022-08-03T09:10:11;5.95;;;1.90;;
19985;SDS011;10154;52.474;10.768;2022-08-03T09:12:47;4.00;;;2.00;;
19985;SDS011;10154;52.474;10.768;2022-08-03T09:15:16;4.25;;;2.03;;
19985;SDS011;10154;52.474;10.768;2022-08-03T09:17:48;6.50;;;2.40;;
19985;SDS011;10154;52.474;10.768;2022-08-03T09:20:16;5.30;;;2.20;;
19985;SDS011;10154;52.474;10.768;2022-08-03T09:22:54;7.05;;;2.70;;
19985;SDS011;10154;52.474;10.768;2022-08-03T09:28:11;7.00;;;2.53;;
19985;SDS011;10154;52.474;10.768;2022-08-03T09:30:40;4.88;;;2.40;;
19985;SDS011;10154;52.474;10.768;2022-08-03T09:33:10;2.83;;;2.30;;
19985;SDS011;10154;52.474;10.768;2022-08-03T09:35:44;4.32;;;2.20;;
19985;SDS011;10154;52.474;10.768;2022-08-03T09:40:53;3.63;;;2.20;;
19985;SDS011;10154;52.474;10.768;2022-08-03T09:43:21;4.32;;;2.35;;
19985;SDS011;10154;52.474;10.768;2022-08-03T09:45:49;3.33;;;2.30;;
19985;SDS011;10154;52.474;10.768;2022-08-03T09:48:26;4.95;;;2.13;;
19985;SDS011;10154;52.474;10.768;2022-08-03T09:53:23;3.65;;;2.50;;
19985;SDS011;10154;52.474;10.768;2022-08-03T09:58:24;7.38;;;2.40;;
19985;SDS011;10154;52.474;10.768;2022-08-03T10:01:02;4.03;;;2.30;;
19985;SDS011;10154;52.474;10.768;2022-08-03T10:03:30;3.15;;;2.28;;
19985;SDS011;10154;52.474;10.768;2022-08-03T10:06:14;2.95;;;2.25;;
19985;SDS011;10154;52.474;10.768;2022-08-03T10:09:08;4.85;;;2.20;;
19985;SDS011;10154;52.474;10.768;2022-08-03T10:11:36;5.03;;;2.50;;
19985;SDS011;10154;52.474;10.768;2022-08-03T10:14:05;3.35;;;2.40;;
19985;SDS011;10154;52.474;10.768;2022-08-03T10:16:38;3.55;;;2.30;;
19985;SDS011;10154;52.474;10.768;2022-08-03T10:19:05;7.78;;;2.63;;
19985;SDS011;10154;52.474;10.768;2022-08-03T10:21:34;3.55;;;2.50;;
19985;SDS011;10154;52.474;10.768;2022-08-03T10:24:04;3.22;;;2.30;;
19985;SDS011;10154;52.474;10.768;2022-08-03T10:26:33;3.58;;;2.20;;
19985;SDS011;10154;52.474;10.768;2022-08-03T10:29:03;3.58;;;1.83;;
19985;SDS011;10154;52.474;10.768;2022-08-03T10:31:38;4.75;;;1.98;;
19985;SDS011;10154;52.474;10.768;2022-08-03T10:34:14;5.43;;;2.17;;
19985;SDS011;10154;52.474;10.768;2022-08-03T10:36:46;2.85;;;2.10;;
19985;SDS011;10154;52.474;10.768;2022-08-03T10:39:17;3.00;;;2.25;;
19985;SDS011;10154;52.474;10.768;2022-08-03T10:41:46;2.30;;;2.10;;
19985;SDS011;10154;52.474;10.768;2022-08-03T10:44:18;4.78;;;2.35;;
19985;SDS011;10154;52.474;10.768;2022-08-03T10:46:48;4.63;;;2.40;;
19985;SDS011;10154;52.474;10.768;2022-08-03T10:49:19;3.67;;;2.10;;
19985;SDS011;10154;52.474;10.768;2022-08-03T10:51:46;4.15;;;2.20;;
19985;SDS011;10154;52.474;10.768;2022-08-03T11:00:29;2.28;;;2.03;;
19985;SDS011;10154;52.474;10.768;2022-08-03T11:03:14;6.38;;;2.50;;
19985;SDS011;10154;52.474;10.768;2022-08-03T11:05:42;3.33;;;2.33;;
19985;SDS011;10154;52.474;10.768;2022-08-03T11:08:25;3.55;;;2.33;;
19985;SDS011;10154;52.474;10.768;2022-08-03T11:19:17;3.58;;;2.40;;
19985;SDS011;10154;52.474;10.768;2022-08-03T11:27:18;5.25;;;2.35;;
19985;SDS011;10154;52.474;10.768;2022-08-03T11:35:09;4.03;;;2.30;;
19985;SDS011;10154;52.474;10.768;2022-08-03T11:40:32;3.42;;;2.75;;
19985;SDS011;10154;52.474;10.768;2022-08-03T11:43:00;4.43;;;2.17;;
19985;SDS011;10154;52.474;10.768;2022-08-03T11:45:28;2.33;;;2.10;;
19985;SDS011;10154;52.474;10.768;2022-08-03T11:47:55;5.35;;;2.45;;
19985;SDS011;10154;52.474;10.768;2022-08-03T11:50:24;3.67;;;2.40;;
19985;SDS011;10154;52.474;10.768;2022-08-03T11:52:50;3.90;;;2.20;;
19985;SDS011;10154;52.474;10.768;2022-08-03T11:55:18;5.40;;;2.50;;
19985;SDS011;10154;52.474;10.768;2022-08-03T11:57:46;5.32;;;2.50;;
19985;SDS011;10154;52.474;10.768;2022-08-03T12:02:55;3.08;;;2.22;;
19985;SDS011;10154;52.474;10.768;2022-08-03T12:05:42;4.22;;;2.70;;
19985;SDS011;10154;52.474;10.768;2022-08-03T12:08:16;5.68;;;2.45;;
19985;SDS011;10154;52.474;10.768;2022-08-03T12:10:58;7.10;;;2.20;;
19985;SDS011;10154;52.474;10.768;2022-08-03T12:13:38;3.22;;;2.30;;
19985;SDS011;10154;52.474;10.768;2022-08-03T12:16:08;5.90;;;2.40;;
19985;SDS011;10154;52.474;10.768;2022-08-03T12:18:34;3.20;;;1.90;;
19985;SDS011;10154;52.474;10.768;2022-08-03T12:21:05;3.42;;;2.17;;
19985;SDS011;10154;52.474;10.768;2022-08-03T12:23:34;2.40;;;2.20;;
19985;SDS011;10154;52.474;10.768;2022-08-03T12:26:05;2.83;;;2.20;;
19985;SDS011;10154;52.474;10.768;2022-08-03T12:28:34;3.83;;;2.33;;
19985;SDS011;10154;52.474;10.768;2022-08-03T12:31:07;3.92;;;2.50;;
19985;SDS011;10154;52.474;10.768;2022-08-03T12:33:54;2.45;;;2.05;;
19985;SDS011;10154;52.474;10.768;2022-08-03T12:36:28;3.25;;;2.30;;
19985;SDS011;10154;52.474;10.768;2022-08-03T12:38:59;3.45;;;2.38;;
19985;SDS011;10154;52.474;10.768;2022-08-03T12:41:35;7.25;;;2.13;;
19985;SDS011;10154;52.474;10.768;2022-08-03T12:44:04;3.50;;;2.13;;
19985;SDS011;10154;52.474;10.768;2022-08-03T12:46:36;5.00;;;2.38;;
19985;SDS011;10154;52.474;10.768;2022-08-03T12:49:10;3.72;;;2.17;;
19985;SDS011;10154;52.474;10.768;2022-08-03T12:54:15;3.40;;;2.30;;
19985;SDS011;10154;52.474;10.768;2022-08-03T12:59:45;2.22;;;2.03;;
19985;SDS011;10154;52.474;10.768;2022-08-03T13:02:16;3.83;;;2.40;;
19985;SDS011;10154;52.474;10.768;2022-08-03T13:04:47;2.63;;;2.03;;
19985;SDS011;10154;52.474;10.768;2022-08-03T13:07:15;4.13;;;2.22;;
19985;SDS011;10154;52.474;10.768;2022-08-03T13:09:52;5.80;;;2.17;;
19985;SDS011;10154;52.474;10.768;2022-08-03T13:12:21;2.45;;;2.10;;
19985;SDS011;10154;52.474;10.768;2022-08-03T13:14:56;4.80;;;2.17;;
19985;SDS011;10154;52.474;10.768;2022-08-03T13:17:24;2.63;;;2.20;;
19985;SDS011;10154;52.474;10.768;2022-08-03T13:19:51;3.28;;;2.20;;
19985;SDS011;10154;52.474;10.768;2022-08-03T13:22:22;4.60;;;2.20;;
19985;SDS011;10154;52.474;10.768;2022-08-03T13:24:51;2.08;;;1.88;;
19985;SDS011;10154;52.474;10.768;2022-08-03T13:27:22;3.47;;;2.30;;
19985;SDS011;10154;52.474;10.768;2022-08-03T13:29:49;3.83;;;2.30;;
19985;SDS011;10154;52.474;10.768;2022-08-03T13:32:17;2.40;;;2.20;;
19985;SDS011;10154;52.474;10.768;2022-08-03T13:34:43;4.72;;;2.40;;
19985;SDS011;10154;52.474;10.768;2022-08-03T13:37:10;2.50;;;2.30;;
19985;SDS011;10154;52.474;10.768;2022-08-03T13:39:37;2.97;;;2.22;;
19985;SDS011;10154;52.474;10.768;2022-08-03T13:42:04;3.25;;;2.53;;
19985;SDS011;10154;52.474;10.768;2022-08-03T13:44:31;5.18;;;2.30;;
19985;SDS011;10154;52.474;10.768;2022-08-03T13:46:57;2.97;;;2.30;;
19985;SDS011;10154;52.474;10.768;2022-08-03T13:49:27;2.40;;;2.20;;
19985;SDS011;10154;52.474;10.768;2022-08-03T13:51:54;3.50;;;2.20;;
19985;SDS011;10154;52.474;10.768;2022-08-03T13:54:22;5.30;;;2.50;;
19985;SDS011;10154;52.474;10.768;2022-08-03T13:56:49;6.60;;;2.60;;
19985;SDS011;10154;52.474;10.768;2022-08-03T13:59:18;2.83;;;2.50;;
19985;SDS011;10154;52.474;10.768;2022-08-03T14:01:49;7.45;;;2.38;;
19985;SDS011;10154;52.474;10.768;2022-08-03T14:04:17;4.05;;;2.40;;
19985;SDS011;10154;52.474;10.768;2022-08-03T14:06:44;2.75;;;2.38;;
19985;SDS011;10154;52.474;10.768;2022-08-03T14:09:11;3.83;;;2.40;;
19985;SDS011;10154;52.474;10.768;2022-08-03T14:11:38;2.72;;;2.30;;
19985;SDS011;10154;52.474;10.768;2022-08-03T14:14:06;4.60;;;2.33;;
19985;SDS011;10154;52.474;10.768;2022-08-03T14:16:32;3.03;;;2.30;;
19985;SDS011;10154;52.474;10.768;2022-08-03T14:18:59;2.30;;;2.10;;
19985;SDS011;10154;52.474;10.768;2022-08-03T14:21:28;3.15;;;2.38;;
19985;SDS011;10154;52.474;10.768;2022-08-03T14:23:55;2.15;;;2.00;;
19985;SDS011;10154;52.474;10.768;2022-08-03T14:26:21;4.78;;;2.40;;
19985;SDS011;10154;52.474;10.768;2022-08-03T14:28:48;3.35;;;2.10;;
19985;SDS011;10154;52.474;10.768;2022-08-03T14:31:14;3.10;;;2.10;;
19985;SDS011;10154;52.474;10.768;2022-08-03T14:33:40;6.70;;;2.22;;
19985;SDS011;10154;52.474;10.768;2022-08-03T14:36:06;4.03;;;2.38;;
19985;SDS011;10154;52.474;10.768;2022-08-03T14:38:33;3.60;;;2.20;;
19985;SDS011;10154;52.474;10.768;2022-08-03T14:40:59;3.25;;;1.90;;
19985;SDS011;10154;52.474;10.768;2022-08-03T14:43:25;4.32;;;2.15;;
19985;SDS011;10154;52.474;10.768;2022-08-03T14:45:51;6.65;;;2.28;;
19985;SDS011;10154;52.474;10.768;2022-08-03T14:48:19;3.22;;;2.15;;
19985;SDS011;10154;52.474;10.768;2022-08-03T14:50:48;2.72;;;2.10;;
19985;SDS011;10154;52.474;10.768;2022-08-03T14:53:16;2.42;;;2.20;;
19985;SDS011;10154;52.474;10.768;2022-08-03T14:55:43;5.82;;;2.20;;
19985;SDS011;10154;52.474;10.768;2022-08-03T14:58:10;4.32;;;2.10;;
19985;SDS011;10154;52.474;10.768;2022-08-03T15:00:36;3.65;;;2.30;;
19985;SDS011;10154;52.474;10.768;2022-08-03T15:03:02;2.78;;;2.20;;
19985;SDS011;10154;52.474;10.768;2022-08-03T15:05:28;6.75;;;2.33;;
19985;SDS011;10154;52.474;10.768;2022-08-03T15:07:55;3.83;;;2.30;;
19985;SDS011;10154;52.474;10.768;2022-08-03T15:10:21;5.43;;;2.03;;
19985;SDS011;10154;52.474;10.768;2022-08-03T15:12:47;2.50;;;2.30;;
19985;SDS011;10154;52.474;10.768;2022-08-03T15:39:44;4.95;;;3.05;;
19985;SDS011;10154;52.474;10.768;2022-08-03T15:42:10;3.85;;;2.58;;
19985;SDS011;10154;52.474;10.768;2022-08-03T15:44:36;4.60;;;2.28;;
19985;SDS011;10154;52.474;10.768;2022-08-03T15:47:02;8.00;;;2.50;;
19985;SDS011;10154;52.474;10.768;2022-08-03T15:49:29;6.18;;;2.80;;
19985;SDS011;10154;52.474;10.768;2022-08-03T15:51:59;5.78;;;2.65;;
19985;SDS011;10154;52.474;10.768;2022-08-03T15:54:26;3.70;;;2.60;;
19985;SDS011;10154;52.474;10.768;2022-08-03T15:56:52;3.85;;;2.42;;
19985;SDS011;10154;52.474;10.768;2022-08-03T15:59:18;4.55;;;2.72;;
19985;SDS011;10154;52.474;10.768;2022-08-03T16:01:45;3.45;;;2.60;;
19985;SDS011;10154;52.474;10.768;2022-08-03T16:04:12;6.90;;;2.47;;
19985;SDS011;10154;52.474;10.768;2022-08-03T16:06:39;2.67;;;2.47;;
19985;SDS011;10154;52.474;10.768;2022-08-03T16:09:05;3.97;;;2.58;;